Nearby METAR Reports

 

KFRG - , , USA
Distance from station: SSW 12mi, 20km
Updated: 12/09/2022 4:53am
Clear
Clear
 Wind from N
Wind: N 9 mph , 15 km/h
Temperature: 37°F , 3°C
Wind Chill: 30°F , -1°C
Dew Point: 25°F , -4°C
Humidity: 60%
Barometer: 30.26 inHg , 1024.7 hPa
Clouds: Clear
Visibility: 10 miles , 16 km
2022/12/09 09:53 KFRG 090953Z AUTO 01008KT 10SM CLR 03/M04 A3026 RMK AO2 SLP248 T00281039
KISP - , , USA
Distance from station: ESE 14mi, 23km
Updated: 12/09/2022 3:56am
Clear
Clear
 Wind from N
Wind: N 13 mph , 20 km/h
Temperature: 37°F , 3°C
Wind Chill: 29°F , -2°C
Dew Point: 27°F , -3°C
Humidity: 65%
Barometer: 30.24 inHg , 1024 hPa
Clouds: Clear
Visibility: 10 miles , 16 km
2022/12/09 08:56 KISP 090856Z AUTO 36011KT 10SM CLR 03/M03 A3024 RMK AO2 SLP241 T00281033 51003
 
KBDR - , , USA
Distance from station: NNE 21mi, 34km
Updated: 12/09/2022 4:52am
Clear
Clear
 Wind from N
Wind: N 7 mph , 11 km/h
Temperature: 34°F , 1°C
Wind Chill: 28°F , -2°C
Dew Point: 25°F , -4°C
Humidity: 70%
Barometer: 30.26 inHg , 1024.7 hPa
Clouds: Clear
Visibility: 10 miles , 16 km
2022/12/09 09:52 KBDR 090952Z AUTO 35006KT 10SM CLR 01/M04 A3026 RMK AO2 SLP246 T00111044
KHPN - , , USA
Distance from station: WNW 22mi, 35km
Updated: 12/09/2022 3:56am
Clear
Clear
 Wind from NNW
Wind: NNW 15 mph , 24 km/h
Temperature: 34°F , 1°C
Wind Chill: 24°F , -4°C
Dew Point: 25°F , -4°C
Humidity: 70%
Barometer: 30.24 inHg , 1024 hPa
Clouds: Clear
Visibility: 10 miles , 16 km
2022/12/09 08:56 KHPN 090856Z 34013KT 10SM CLR 01/M04 A3024 RMK AO2 SLP247 T00061039 50000
 
KHWV - , , USA
Distance from station: ESE 26mi, 41km
Updated: 12/09/2022 3:56am
Clear
Clear
 Wind from N
Wind: N 6 mph , 9 km/h
Temperature: 37°F , 3°C
Wind Chill: 32°F , 0°C
Dew Point: 25°F , -4°C
Humidity: 60%
Barometer: 30.25 inHg , 1024.4 hPa
Clouds: Clear
Visibility: 10 miles , 16 km
2022/12/09 08:56 KHWV 090856Z AUTO 35005KT 10SM CLR 03/M04 A3025 RMK AO2 SLP243 T00281039 51004
KJFK - , , USA
Distance from station: SW 29mi, 46km
Updated: 12/09/2022 4:51am
Few Clouds
Few Clouds
 Wind from N
Wind: N 16 mph , 26 km/h
Temperature: 36°F , 2°C
Wind Chill: 26°F , -3°C
Dew Point: 27°F , -3°C
Humidity: 70%
Barometer: 30.28 inHg , 1025.4 hPa
Clouds: Few Clouds
Visibility: 10 miles , 16 km
Cloud details: Few Clouds 25000 ft
2022/12/09 09:51 KJFK 090951Z 36014KT 10SM FEW250 02/M03 A3028 RMK AO2 SLP252 T00221033
 
KLGA - , , USA
Distance from station: WSW 29mi, 47km
Updated: 12/09/2022 4:51am
Few Clouds
Few Clouds
 Wind from N
Wind: N 8 mph , 13 km/h
Temperature: 37°F , 3°C
Wind Chill: 31°F , -1°C
Dew Point: 25°F , -4°C
Humidity: 60%
Barometer: 30.27 inHg , 1025.1 hPa
Clouds: Few Clouds
Visibility: 10 miles , 16 km
Cloud details: Few Clouds 25000 ft
2022/12/09 09:51 KLGA 090951Z 01007KT 10SM FEW250 03/M04 A3027 RMK AO2 SLP251 T00281044